createdAt,value
2023-11-23T00:02:19.275Z,46.11
2023-11-23T00:04:52.547Z,45.90
2023-11-23T00:07:25.766Z,45.61
2023-11-23T00:09:59.025Z,45.91
2023-11-23T00:12:32.377Z,46.00
2023-11-23T00:15:06.195Z,45.76
2023-11-23T00:17:40.453Z,45.56
2023-11-23T00:20:14.818Z,45.78
2023-11-23T00:22:48.454Z,45.62
2023-11-23T00:25:21.853Z,45.60
2023-11-23T00:27:55.874Z,45.51
2023-11-23T00:30:29.114Z,45.39
2023-11-23T00:33:02.432Z,45.41
2023-11-23T00:35:35.683Z,45.55
2023-11-23T00:38:11.966Z,45.36
2023-11-23T00:40:45.431Z,45.27
2023-11-23T00:43:18.681Z,45.21
2023-11-23T00:45:51.938Z,45.24
2023-11-23T00:48:25.285Z,45.19
2023-11-23T00:50:58.761Z,45.17
2023-11-23T00:53:31.987Z,45.17
2023-11-23T00:56:06.144Z,45.17
2023-11-23T00:58:39.546Z,45.15
2023-11-23T01:01:17.219Z,45.07
2023-11-23T01:03:50.637Z,45.16
2023-11-23T01:06:23.936Z,45.11
2023-11-23T01:08:57.241Z,45.36
2023-11-23T01:11:30.457Z,45.12
2023-11-23T01:14:03.830Z,45.28
2023-11-23T01:16:37.495Z,45.28
2023-11-23T01:19:10.809Z,45.27
2023-11-23T01:21:44.076Z,45.29
2023-11-23T01:24:18.518Z,45.17
2023-11-23T01:26:51.816Z,45.29
2023-11-23T01:29:25.109Z,45.08
2023-11-23T01:31:58.882Z,45.20
2023-11-23T01:34:32.144Z,45.29
2023-11-23T01:37:05.764Z,45.38
2023-11-23T01:39:38.960Z,45.29
2023-11-23T01:42:12.200Z,45.35
2023-11-23T01:44:45.477Z,45.28
2023-11-23T01:47:19.098Z,45.19
2023-11-23T01:49:54.312Z,45.48
2023-11-23T01:52:28.073Z,45.31
2023-11-23T01:55:01.487Z,45.52
2023-11-23T01:57:39.740Z,45.27
2023-11-23T02:00:15.890Z,45.44
2023-11-23T02:02:49.788Z,45.64
2023-11-23T02:05:25.417Z,45.46
2023-11-23T02:07:58.684Z,45.44
2023-11-23T02:10:31.918Z,45.53
2023-11-23T02:13:06.349Z,45.30
2023-11-23T02:15:43.697Z,45.21
2023-11-23T02:18:16.895Z,45.26
2023-11-23T02:20:50.263Z,45.22
2023-11-23T02:23:23.512Z,45.27
2023-11-23T02:25:56.707Z,45.17
2023-11-23T02:28:30.267Z,45.16
2023-11-23T02:31:03.992Z,44.97
2023-11-23T02:33:38.041Z,44.84
2023-11-23T02:36:12.353Z,44.97
2023-11-23T02:38:45.613Z,45.04
2023-11-23T02:41:18.853Z,45.07
2023-11-23T02:43:52.118Z,44.85
2023-11-23T02:46:25.369Z,44.99
2023-11-23T02:48:58.679Z,44.97
2023-11-23T02:51:32.079Z,44.92
2023-11-23T02:54:07.329Z,44.83
2023-11-23T02:56:40.903Z,44.89
2023-11-23T02:59:14.160Z,44.93
2023-11-23T03:01:47.531Z,44.92
2023-11-23T03:04:20.865Z,44.94
2023-11-23T03:06:54.167Z,45.02
2023-11-23T03:09:27.478Z,45.16
2023-11-23T03:12:01.182Z,44.96
2023-11-23T03:14:35.844Z,44.91
2023-11-23T03:17:09.828Z,44.94
2023-11-23T03:19:43.058Z,45.01
2023-11-23T03:22:16.352Z,44.82
2023-11-23T03:24:50.659Z,44.94
2023-11-23T03:27:23.943Z,44.88
2023-11-23T03:29:57.352Z,45.02
2023-11-23T03:32:31.798Z,44.96
2023-11-23T03:35:06.597Z,45.05
2023-11-23T03:37:40.008Z,45.12
2023-11-23T03:40:16.089Z,44.97
2023-11-23T03:42:49.340Z,44.96
2023-11-23T03:45:23.997Z,44.94
2023-11-23T03:47:57.606Z,45.06
2023-11-23T03:50:31.037Z,44.97
2023-11-23T03:53:05.864Z,45.00
2023-11-23T03:55:39.331Z,44.80
2023-11-23T03:58:12.659Z,45.05
2023-11-23T04:00:46.138Z,44.97
2023-11-23T04:03:19.535Z,44.61
2023-11-23T04:05:53.343Z,44.60
2023-11-23T04:08:26.980Z,44.91
2023-11-23T04:11:00.227Z,44.80
2023-11-23T04:13:33.524Z,44.87
2023-11-23T04:16:07.657Z,44.86
2023-11-23T04:18:43.028Z,44.84
2023-11-23T04:21:17.090Z,44.75
2023-11-23T04:23:50.521Z,44.76
2023-11-23T04:26:23.798Z,44.80
2023-11-23T04:28:56.981Z,44.68
2023-11-23T04:31:32.056Z,44.67
2023-11-23T04:34:05.340Z,44.81
2023-11-23T04:36:38.939Z,44.80
2023-11-23T04:39:14.097Z,44.76
2023-11-23T04:41:47.375Z,44.89
2023-11-23T04:44:20.670Z,44.78
2023-11-23T04:46:54.152Z,44.67
2023-11-23T04:49:27.400Z,44.75
2023-11-23T04:52:00.742Z,45.11
2023-11-23T04:54:34.144Z,44.80
2023-11-23T04:57:07.768Z,44.84
2023-11-23T04:59:41.105Z,44.98
2023-11-23T05:02:14.620Z,44.94
2023-11-23T05:04:48.047Z,45.00
2023-11-23T05:07:21.419Z,44.86
2023-11-23T05:09:54.728Z,44.81
2023-11-23T05:12:28.056Z,44.86
2023-11-23T05:15:02.439Z,44.60
2023-11-23T05:17:37.238Z,44.92
2023-11-23T05:20:13.744Z,44.73
2023-11-23T05:22:47.601Z,44.85
2023-11-23T05:25:20.935Z,44.74
2023-11-23T05:27:54.149Z,44.72
2023-11-23T05:30:28.051Z,44.74
2023-11-23T05:33:01.558Z,44.77
2023-11-23T05:35:35.432Z,44.63
2023-11-23T05:38:08.683Z,44.72
2023-11-23T05:40:41.988Z,44.59
2023-11-23T05:43:15.298Z,44.82
2023-11-23T05:45:49.052Z,44.65
2023-11-23T05:48:22.336Z,44.68
2023-11-23T05:50:55.689Z,44.54
2023-11-23T05:53:28.929Z,44.75
2023-11-23T05:56:03.903Z,44.74
2023-11-23T05:58:37.215Z,44.67
2023-11-23T06:01:12.618Z,44.45
2023-11-23T06:03:46.870Z,44.66
2023-11-23T06:06:28.037Z,44.59
2023-11-23T06:09:01.360Z,44.54
2023-11-23T06:11:34.649Z,44.64
2023-11-23T06:14:08.435Z,44.55
2023-11-23T06:16:41.903Z,44.63
2023-11-23T06:19:15.412Z,44.75
2023-11-23T06:21:48.812Z,44.64
2023-11-23T06:24:24.127Z,44.63
2023-11-23T06:26:58.139Z,44.59
2023-11-23T06:29:31.359Z,44.49
2023-11-23T06:32:07.007Z,44.47
2023-11-23T06:34:41.241Z,44.46
2023-11-23T06:37:14.773Z,44.46
2023-11-23T06:39:47.992Z,44.47
2023-11-23T06:42:22.752Z,44.41
2023-11-23T06:44:58.088Z,44.37
2023-11-23T06:47:31.567Z,44.30
2023-11-23T06:50:05.496Z,44.30
2023-11-23T06:52:38.978Z,44.31
2023-11-23T06:55:15.279Z,44.35
2023-11-23T06:57:48.753Z,44.27
2023-11-23T07:00:24.329Z,44.23
2023-11-23T07:03:00.009Z,44.24
2023-11-23T07:05:33.708Z,44.20
2023-11-23T07:08:07.416Z,44.38
2023-11-23T07:10:42.512Z,44.37
2023-11-23T07:13:16.917Z,44.46
2023-11-23T07:15:50.229Z,44.34
2023-11-23T07:18:23.898Z,44.23
2023-11-23T07:20:57.871Z,44.33
2023-11-23T07:23:31.279Z,44.21
2023-11-23T07:26:04.870Z,44.23
2023-11-23T07:28:38.854Z,44.10
2023-11-23T07:31:12.286Z,44.34
2023-11-23T07:33:46.248Z,44.29
2023-11-23T07:36:19.883Z,44.15
2023-11-23T07:38:53.305Z,44.37
2023-11-23T07:41:27.004Z,44.37
2023-11-23T07:44:00.923Z,44.55
2023-11-23T07:46:34.300Z,44.57
2023-11-23T07:49:07.824Z,44.74
2023-11-23T07:51:41.238Z,44.91
2023-11-23T07:54:14.903Z,44.99
2023-11-23T07:56:48.490Z,45.24
2023-11-23T07:59:22.002Z,45.11
2023-11-23T08:01:56.973Z,44.91
2023-11-23T08:04:30.547Z,44.80
2023-11-23T08:07:04.102Z,44.82
2023-11-23T08:09:37.470Z,44.79
2023-11-23T08:12:13.010Z,44.79
2023-11-23T08:14:46.601Z,44.60
2023-11-23T08:17:19.998Z,44.50
2023-11-23T08:19:53.395Z,44.49
2023-11-23T08:22:27.118Z,44.40
2023-11-23T08:25:00.546Z,44.31
2023-11-23T08:27:35.824Z,44.28
2023-11-23T08:30:14.018Z,44.29
2023-11-23T08:32:47.543Z,44.36
2023-11-23T08:35:21.021Z,44.37
2023-11-23T08:37:55.766Z,44.32
2023-11-23T08:40:29.111Z,44.33
2023-11-23T08:43:04.928Z,44.33
2023-11-23T08:45:38.341Z,44.50
2023-11-23T08:48:12.008Z,44.37
2023-11-23T08:50:45.469Z,44.33
2023-11-23T08:53:18.759Z,44.30
2023-11-23T08:55:52.750Z,44.52
2023-11-23T08:58:26.070Z,44.53
2023-11-23T09:01:00.162Z,45.22
2023-11-23T09:03:33.968Z,44.86
2023-11-23T09:06:09.376Z,44.83
2023-11-23T09:08:42.845Z,44.73
2023-11-23T09:11:16.484Z,44.66
2023-11-23T09:13:49.781Z,44.67
2023-11-23T09:16:23.453Z,44.78
2023-11-23T09:18:56.838Z,44.57
2023-11-23T09:21:30.313Z,44.80
2023-11-23T09:24:06.491Z,44.95
2023-11-23T09:26:41.290Z,44.69
2023-11-23T09:29:14.549Z,44.86
2023-11-23T09:31:47.831Z,44.57
2023-11-23T09:34:21.430Z,44.61
2023-11-23T09:36:54.763Z,44.58
2023-11-23T09:39:28.804Z,42.25
2023-11-23T09:42:05.979Z,42.33
2023-11-23T09:44:41.584Z,43.64
2023-11-23T09:47:16.509Z,44.28
2023-11-23T09:49:49.904Z,44.27
2023-11-23T09:52:23.350Z,44.13
2023-11-23T09:54:58.612Z,44.07
2023-11-23T09:57:32.178Z,44.06
2023-11-23T10:00:10.494Z,43.99
2023-11-23T10:02:46.076Z,44.25
2023-11-23T10:05:20.671Z,48.62
2023-11-23T10:07:55.333Z,59.01
2023-11-23T10:10:29.379Z,61.19
2023-11-23T10:13:03.241Z,61.59
2023-11-23T10:15:36.678Z,60.81
2023-11-23T10:18:10.106Z,57.35
2023-11-23T10:20:48.099Z,50.22
2023-11-23T10:23:25.427Z,49.63
2023-11-23T10:25:59.470Z,50.96
2023-11-23T10:28:34.006Z,50.50
2023-11-23T10:31:13.220Z,50.16
2023-11-23T10:33:48.287Z,49.65
2023-11-23T10:36:24.649Z,49.13
2023-11-23T10:39:01.072Z,48.89
2023-11-23T10:41:35.352Z,48.91
2023-11-23T10:44:11.901Z,48.65
2023-11-23T10:46:48.587Z,48.15
2023-11-23T10:49:23.511Z,48.15
2023-11-23T10:51:58.064Z,47.71
2023-11-23T10:54:34.195Z,47.98
2023-11-23T10:57:12.110Z,47.88
2023-11-23T10:59:47.584Z,47.85
2023-11-23T11:02:22.467Z,47.84
2023-11-23T11:05:00.977Z,47.83
2023-11-23T11:07:39.413Z,47.70
2023-11-23T11:10:13.498Z,47.77
2023-11-23T11:12:49.565Z,47.74
2023-11-23T11:15:26.510Z,47.74
2023-11-23T11:18:11.801Z,47.45
2023-11-23T11:20:47.555Z,47.38
2023-11-23T11:23:39.084Z,47.33
2023-11-23T11:26:18.472Z,47.91
2023-11-23T11:28:59.835Z,47.97
2023-11-23T11:31:38.244Z,48.24
2023-11-23T11:34:22.154Z,48.66
2023-11-23T11:37:03.361Z,48.83
2023-11-23T11:39:38.808Z,48.69
2023-11-23T11:42:15.233Z,48.87
2023-11-23T11:44:49.767Z,48.84
2023-11-23T11:47:25.282Z,48.92
2023-11-23T11:49:59.702Z,49.00
2023-11-23T11:52:37.918Z,49.09
2023-11-23T11:55:11.914Z,49.12
2023-11-23T11:57:46.474Z,49.15
2023-11-23T12:00:22.460Z,48.99
2023-11-23T12:02:56.074Z,48.92
2023-11-23T12:05:30.172Z,48.78
2023-11-23T12:08:03.471Z,48.80
2023-11-23T12:10:43.537Z,48.96
2023-11-23T12:13:26.276Z,49.42
2023-11-23T12:15:59.524Z,49.88
2023-11-23T12:18:37.463Z,49.97
2023-11-23T12:21:17.199Z,50.45
2023-11-23T12:23:50.516Z,50.70
2023-11-23T12:26:24.527Z,51.36
2023-11-23T12:28:58.048Z,51.61
2023-11-23T12:31:31.335Z,51.39
2023-11-23T12:34:05.405Z,51.69
2023-11-23T12:36:38.769Z,51.74
2023-11-23T12:39:14.714Z,52.25
2023-11-23T12:41:53.213Z,52.91
2023-11-23T12:44:30.454Z,52.10
2023-11-23T12:47:04.574Z,52.24
2023-11-23T12:49:38.614Z,52.35
2023-11-23T12:52:11.974Z,52.30
2023-11-23T12:54:45.512Z,52.14
2023-11-23T12:57:19.029Z,52.59
2023-11-23T12:59:52.650Z,52.29
2023-11-23T13:02:26.106Z,52.07
2023-11-23T13:04:59.713Z,52.38
2023-11-23T13:07:33.578Z,52.21
2023-11-23T13:10:10.542Z,52.36
2023-11-23T13:12:44.295Z,52.77
2023-11-23T13:15:18.532Z,52.00
2023-11-23T13:17:51.929Z,51.57
2023-11-23T13:20:25.988Z,51.89
2023-11-23T13:23:00.202Z,52.01
2023-11-23T13:25:33.568Z,52.34
2023-11-23T13:28:07.131Z,52.40
2023-11-23T13:30:40.502Z,52.51
2023-11-23T13:33:21.546Z,52.74
2023-11-23T13:35:55.174Z,52.32
2023-11-23T13:38:28.822Z,52.16
2023-11-23T13:41:04.268Z,52.22
2023-11-23T13:43:37.763Z,51.97
2023-11-23T13:46:11.680Z,51.72
2023-11-23T13:48:47.370Z,51.76
2023-11-23T13:51:23.099Z,49.56
2023-11-23T13:53:57.489Z,50.45
2023-11-23T13:56:31.060Z,51.64
2023-11-23T13:59:05.201Z,51.92
2023-11-23T14:01:39.983Z,51.42
2023-11-23T14:04:16.173Z,51.29
2023-11-23T14:06:49.619Z,51.16
2023-11-23T14:09:23.136Z,50.87
2023-11-23T14:11:56.821Z,50.68
2023-11-23T14:14:30.889Z,50.70
2023-11-23T14:17:04.417Z,50.69
2023-11-23T14:19:38.934Z,50.36
2023-11-23T14:22:12.463Z,49.93
2023-11-23T14:24:47.586Z,49.83
2023-11-23T14:27:21.712Z,50.06
2023-11-23T14:29:55.659Z,50.50
2023-11-23T14:32:29.189Z,50.11
2023-11-23T14:35:02.655Z,50.08
2023-11-23T14:37:36.708Z,49.97
2023-11-23T14:40:20.151Z,49.96
2023-11-23T14:42:56.929Z,49.76
2023-11-23T14:45:33.193Z,49.70
2023-11-23T14:48:09.138Z,49.51
2023-11-23T14:50:42.970Z,49.38
2023-11-23T14:53:16.404Z,49.26
2023-11-23T14:55:50.077Z,49.14
2023-11-23T14:58:23.453Z,48.94
2023-11-23T15:00:57.251Z,49.05
2023-11-23T15:03:31.409Z,49.02
2023-11-23T15:06:06.186Z,48.91
2023-11-23T15:08:39.702Z,48.74
2023-11-23T15:11:16.143Z,48.67
2023-11-23T15:13:49.953Z,48.74
2023-11-23T15:16:23.437Z,48.45
2023-11-23T15:18:56.898Z,48.35
2023-11-23T15:21:30.945Z,48.33
2023-11-23T15:24:05.124Z,48.25
2023-11-23T15:26:39.587Z,48.30
2023-11-23T15:29:14.117Z,48.36
2023-11-23T15:31:48.135Z,48.10
2023-11-23T15:34:23.210Z,48.10
2023-11-23T15:36:57.291Z,48.16
2023-11-23T15:39:30.762Z,47.96
2023-11-23T15:42:04.538Z,47.87
2023-11-23T15:44:38.605Z,48.02
2023-11-23T15:47:13.225Z,47.93
2023-11-23T15:49:48.314Z,47.69
2023-11-23T15:52:22.762Z,47.67
2023-11-23T15:54:56.957Z,47.45
2023-11-23T15:57:30.424Z,47.53
2023-11-23T16:00:05.571Z,48.22
2023-11-23T16:02:44.592Z,48.05
2023-11-23T16:05:25.723Z,48.04
2023-11-23T16:07:59.311Z,47.71
2023-11-23T16:10:32.750Z,49.99
2023-11-23T16:13:06.310Z,49.26
2023-11-23T16:15:39.872Z,49.20
2023-11-23T16:18:16.392Z,49.08
2023-11-23T16:20:51.872Z,49.10
2023-11-23T16:23:25.515Z,49.04
2023-11-23T16:26:00.538Z,48.69
2023-11-23T16:28:34.312Z,48.77
2023-11-23T16:31:08.378Z,48.85
2023-11-23T16:33:41.983Z,48.38
2023-11-23T16:36:30.100Z,48.31
2023-11-23T16:39:16.220Z,48.61
2023-11-23T16:41:51.145Z,48.63
2023-11-23T16:44:24.888Z,48.62
2023-11-23T16:46:58.856Z,48.98
2023-11-23T16:49:32.372Z,48.96
2023-11-23T16:52:06.239Z,48.67
2023-11-23T16:54:39.609Z,48.75
2023-11-23T16:57:13.604Z,48.65
2023-11-23T16:59:48.757Z,48.62
2023-11-23T17:05:23.495Z,48.52
2023-11-23T17:07:57.004Z,48.42
2023-11-23T17:10:30.808Z,48.36
2023-11-23T17:13:05.652Z,48.44
2023-11-23T17:15:39.210Z,48.18
2023-11-23T17:18:12.876Z,48.02
2023-11-23T17:20:46.579Z,48.42
2023-11-23T17:23:20.099Z,48.40
2023-11-23T17:25:53.724Z,48.22
2023-11-23T17:28:27.200Z,48.29
2023-11-23T17:31:01.726Z,48.09
2023-11-23T17:33:36.239Z,48.21
2023-11-23T17:36:11.361Z,48.01
2023-11-23T17:38:45.784Z,48.04
2023-11-23T17:41:19.306Z,48.03
2023-11-23T17:43:52.723Z,48.07
2023-11-23T17:46:26.621Z,47.79
2023-11-23T17:49:00.135Z,47.28
2023-11-23T17:51:33.833Z,48.14
2023-11-23T17:54:07.932Z,49.09
2023-11-23T17:56:41.606Z,50.24
2023-11-23T17:59:26.152Z,53.20
2023-11-23T18:02:08.195Z,54.88
2023-11-23T18:04:41.672Z,51.15
2023-11-23T18:07:15.154Z,50.78
2023-11-23T18:09:48.645Z,53.37
2023-11-23T18:12:22.974Z,55.22
2023-11-23T18:14:56.488Z,55.91
2023-11-23T18:17:30.370Z,54.97
2023-11-23T18:20:05.339Z,54.31
2023-11-23T18:22:38.906Z,53.21
2023-11-23T18:25:13.819Z,51.28
2023-11-23T18:27:47.710Z,51.42
2023-11-23T18:30:22.024Z,52.08
2023-11-23T18:32:55.460Z,52.51
2023-11-23T18:35:29.450Z,51.41
2023-11-23T18:38:06.596Z,51.46
2023-11-23T18:40:40.315Z,51.86
2023-11-23T18:43:15.617Z,51.58
2023-11-23T18:45:50.171Z,51.62
2023-11-23T18:48:23.805Z,51.17
2023-11-23T18:50:57.502Z,50.95
2023-11-23T18:53:31.400Z,50.89
2023-11-23T18:56:05.188Z,50.80
2023-11-23T18:58:38.583Z,50.63
2023-11-23T19:01:12.154Z,50.67
2023-11-23T19:03:46.853Z,50.54
2023-11-23T19:06:20.550Z,50.14
2023-11-23T19:08:53.985Z,50.25
2023-11-23T19:11:28.242Z,49.67
2023-11-23T19:14:01.954Z,49.58
2023-11-23T19:16:35.385Z,49.51
2023-11-23T19:19:10.506Z,49.41
2023-11-23T19:21:46.598Z,49.43
2023-11-23T19:24:22.248Z,49.11
2023-11-23T19:26:56.935Z,49.07
2023-11-23T19:29:46.068Z,49.23
2023-11-23T19:32:30.734Z,48.89
2023-11-23T19:35:13.052Z,49.05
2023-11-23T19:37:49.463Z,48.69
2023-11-23T19:40:26.808Z,48.64
2023-11-23T19:43:01.724Z,48.77
2023-11-23T19:45:37.092Z,48.56
2023-11-23T19:48:13.741Z,48.54
2023-11-23T19:50:49.243Z,48.34
2023-11-23T19:53:24.943Z,49.03
2023-11-23T19:55:59.218Z,49.12
2023-11-23T19:58:33.085Z,49.38
2023-11-23T20:01:07.689Z,49.58
2023-11-23T20:03:41.486Z,49.61
2023-11-23T20:06:15.196Z,49.63
2023-11-23T20:08:49.163Z,49.44
2023-11-23T20:11:23.830Z,49.22
2023-11-23T20:14:09.312Z,49.06
2023-11-23T20:16:42.920Z,48.99
2023-11-23T20:19:16.464Z,48.94
2023-11-23T20:21:49.988Z,48.83
2023-11-23T20:24:25.447Z,48.75
2023-11-23T20:26:58.950Z,48.75
2023-11-23T20:29:34.033Z,48.66
2023-11-23T20:32:09.343Z,48.47
2023-11-23T20:34:43.146Z,48.20
2023-11-23T20:37:16.764Z,48.79
2023-11-23T20:39:50.286Z,49.58
2023-11-23T20:42:23.836Z,50.44
2023-11-23T20:44:57.363Z,50.41
2023-11-23T20:47:30.802Z,50.64
2023-11-23T20:50:06.304Z,50.37
2023-11-23T20:52:40.673Z,50.34
2023-11-23T20:55:18.172Z,49.84
2023-11-23T20:57:53.862Z,49.86
2023-11-23T21:00:29.440Z,49.66
2023-11-23T21:03:04.699Z,49.75
2023-11-23T21:05:39.873Z,49.38
2023-11-23T21:08:16.279Z,49.58
2023-11-23T21:10:50.148Z,49.42
2023-11-23T21:13:23.538Z,49.36
2023-11-23T21:16:01.004Z,49.29
2023-11-23T21:18:34.574Z,49.24
2023-11-23T21:21:08.882Z,49.05
2023-11-23T21:23:42.760Z,48.94
2023-11-23T21:26:16.264Z,48.80
2023-11-23T21:28:49.998Z,49.00
2023-11-23T21:31:23.789Z,48.93
2023-11-23T21:34:00.459Z,49.02
2023-11-23T21:36:35.887Z,48.64
2023-11-23T21:39:10.192Z,48.36
2023-11-23T21:41:43.735Z,48.55
2023-11-23T21:44:17.767Z,48.64
2023-11-23T21:46:51.261Z,48.67
2023-11-23T21:49:25.101Z,48.61
2023-11-23T21:51:58.606Z,48.31
2023-11-23T21:54:32.100Z,48.26
2023-11-23T21:57:06.376Z,48.36
2023-11-23T21:59:40.399Z,48.45
2023-11-23T22:02:14.420Z,48.49
2023-11-23T22:04:47.991Z,48.38
2023-11-23T22:07:21.457Z,48.24
2023-11-23T22:09:54.985Z,48.29
2023-11-23T22:12:28.624Z,48.41
2023-11-23T22:15:02.053Z,48.36
2023-11-23T22:17:37.161Z,48.17
2023-11-23T22:20:13.851Z,48.25
2023-11-23T22:22:48.725Z,48.31
2023-11-23T22:25:24.027Z,48.15
2023-11-23T22:27:58.811Z,48.09
2023-11-23T22:30:34.437Z,47.97
2023-11-23T22:33:10.473Z,48.00
2023-11-23T22:35:45.163Z,46.53
2023-11-23T22:38:19.916Z,47.83
2023-11-23T22:40:54.739Z,48.21
2023-11-23T22:43:29.723Z,48.26
2023-11-23T22:46:05.200Z,48.00
2023-11-23T22:48:38.771Z,47.85
2023-11-23T22:51:12.560Z,47.91
2023-11-23T22:53:46.547Z,47.68
2023-11-23T22:56:20.140Z,47.87
2023-11-23T22:58:53.570Z,47.87
2023-11-23T23:01:27.110Z,47.68
2023-11-23T23:04:00.562Z,47.88
2023-11-23T23:06:34.095Z,47.63
2023-11-23T23:09:09.168Z,47.69
2023-11-23T23:11:42.662Z,47.61
2023-11-23T23:14:16.138Z,47.57
2023-11-23T23:16:49.582Z,47.60
2023-11-23T23:19:23.029Z,47.73
2023-11-23T23:21:56.927Z,47.60
2023-11-23T23:24:30.578Z,47.63
2023-11-23T23:27:06.478Z,47.62
2023-11-23T23:29:40.517Z,47.95
2023-11-23T23:32:13.901Z,47.62
2023-11-23T23:34:47.368Z,47.42
2023-11-23T23:37:21.194Z,47.67
2023-11-23T23:39:54.767Z,47.61
2023-11-23T23:42:28.767Z,47.58
2023-11-23T23:45:02.429Z,47.73
2023-11-23T23:47:36.665Z,47.85
2023-11-23T23:50:12.904Z,47.83
2023-11-23T23:52:46.416Z,47.72
2023-11-23T23:55:20.052Z,47.81
2023-11-23T23:57:53.846Z,47.79
